CCM26F LFML-LFKJ
Flight info
| Callsign | CCM26F |
|---|---|
| Flight time | 0h 37m |
| Altitude | 23000 |
| Route | TINOT Z154 RUBAS |
| Aircraft | A320/M-SDE3FGHIRWY/LB1 |
Departure
| Time | 2026-05-06 14:08 |
|---|---|
| Airport | Marseille Provence Airport (LFML) |
Arrival
| Time | 2026-05-06 14:46 |
|---|---|
| Airport | Ajaccio Napoléon Bonaparte airport (LFKJ) |
| Time | Latitude | Longitude | Altitude | Speed | Heading |
|---|---|---|---|---|---|
| 2026-05-06 13:25 | 43.43816 | 5.22307 | 46 ft | 0 kts | 73° |
| 2026-05-06 13:52 | 43.43813 | 5.22297 | 43 ft | 4 kts | 70° |
| 2026-05-06 13:52 | 43.43802 | 5.22264 | 43 ft | 4 kts | 50° |
| 2026-05-06 13:52 | 43.43782 | 5.22241 | 44 ft | 4 kts | 19° |
| 2026-05-06 13:53 | 43.43764 | 5.22238 | 41 ft | 0 kts | 345° |
| 2026-05-06 14:00 | 43.43765 | 5.22237 | 46 ft | 1 kts | 345° |
| 2026-05-06 14:00 | 43.43789 | 5.22228 | 45 ft | 5 kts | 345° |
| 2026-05-06 14:01 | 43.43823 | 5.22215 | 44 ft | 6 kts | 343° |
| 2026-05-06 14:01 | 43.43866 | 5.22171 | 43 ft | 8 kts | 297° |
| 2026-05-06 14:01 | 43.43839 | 5.22104 | 43 ft | 9 kts | 224° |
| 2026-05-06 14:01 | 43.43789 | 5.22038 | 43 ft | 11 kts | 223° |
| 2026-05-06 14:02 | 43.43721 | 5.22043 | 44 ft | 10 kts | 153° |
| 2026-05-06 14:02 | 43.43673 | 5.22080 | 45 ft | 6 kts | 150° |
| 2026-05-06 14:02 | 43.43635 | 5.22111 | 46 ft | 9 kts | 150° |
| 2026-05-06 14:02 | 43.43564 | 5.22168 | 49 ft | 16 kts | 149° |
| 2026-05-06 14:03 | 43.43455 | 5.22254 | 52 ft | 18 kts | 149° |
| 2026-05-06 14:03 | 43.43344 | 5.22315 | 53 ft | 17 kts | 148° |
| 2026-05-06 14:03 | 43.43267 | 5.22413 | 58 ft | 13 kts | 135° |
| 2026-05-06 14:03 | 43.43222 | 5.22477 | 58 ft | 6 kts | 139° |
| 2026-05-06 14:04 | 43.43200 | 5.22493 | 58 ft | 2 kts | 157° |
| 2026-05-06 14:04 | 43.43197 | 5.22495 | 58 ft | 0 kts | 161° |
| 2026-05-06 14:05 | 43.43196 | 5.22495 | 58 ft | 1 kts | 162° |
| 2026-05-06 14:05 | 43.43168 | 5.22499 | 60 ft | 7 kts | 181° |
| 2026-05-06 14:05 | 43.43124 | 5.22489 | 62 ft | 4 kts | 193° |
| 2026-05-06 14:05 | 43.43120 | 5.22488 | 61 ft | 0 kts | 195° |
| 2026-05-06 14:06 | 43.43116 | 5.22487 | 60 ft | 2 kts | 195° |
| 2026-05-06 14:06 | 43.43092 | 5.22473 | 50 ft | 6 kts | 207° |
| 2026-05-06 14:06 | 43.43054 | 5.22430 | 61 ft | 7 kts | 228° |
| 2026-05-06 14:07 | 43.43060 | 5.22371 | 59 ft | 10 kts | 306° |
| 2026-05-06 14:07 | 43.43117 | 5.22289 | 63 ft | 9 kts | 314° |
| 2026-05-06 14:07 | 43.43126 | 5.22277 | 62 ft | 0 kts | 314° |
| 2026-05-06 14:07 | 43.43127 | 5.22275 | 62 ft | 3 kts | 314° |
| 2026-05-06 14:08 | 43.43311 | 5.22014 | 53 ft | 76 kts | 314° |
| 2026-05-06 14:08 | 43.43826 | 5.21281 | 34 ft | 135 kts | 314° |
| 2026-05-06 14:08 | 43.44588 | 5.20198 | 199 ft | 164 kts | 312° |
| 2026-05-06 14:08 | 43.45366 | 5.19104 | 906 ft | 159 kts | 311° |
| 2026-05-06 14:09 | 43.46146 | 5.17984 | 1431 ft | 169 kts | 310° |
| 2026-05-06 14:09 | 43.47006 | 5.16734 | 1787 ft | 188 kts | 306° |
| 2026-05-06 14:09 | 43.47553 | 5.15090 | 2180 ft | 200 kts | 276° |
| 2026-05-06 14:09 | 43.47347 | 5.13168 | 2765 ft | 211 kts | 245° |
| 2026-05-06 14:10 | 43.46369 | 5.11644 | 3548 ft | 217 kts | 213° |
| 2026-05-06 14:10 | 43.44933 | 5.10936 | 4228 ft | 223 kts | 198° |
| 2026-05-06 14:10 | 43.43416 | 5.10410 | 4978 ft | 225 kts | 198° |
| 2026-05-06 14:10 | 43.41894 | 5.09878 | 5746 ft | 227 kts | 199° |
| 2026-05-06 14:11 | 43.40379 | 5.09331 | 6472 ft | 229 kts | 199° |
| 2026-05-06 14:11 | 43.38822 | 5.08752 | 7162 ft | 233 kts | 199° |
| 2026-05-06 14:11 | 43.37200 | 5.08175 | 7645 ft | 251 kts | 198° |
| 2026-05-06 14:11 | 43.35425 | 5.07577 | 8034 ft | 272 kts | 197° |
| 2026-05-06 14:12 | 43.33554 | 5.06965 | 8752 ft | 279 kts | 197° |
| 2026-05-06 14:12 | 43.31674 | 5.06357 | 9573 ft | 282 kts | 197° |
| 2026-05-06 14:12 | 43.29740 | 5.05732 | 10256 ft | 291 kts | 197° |
| 2026-05-06 14:12 | 43.27684 | 5.05059 | 10483 ft | 314 kts | 196° |
| 2026-05-06 14:13 | 43.25499 | 5.04339 | 10665 ft | 337 kts | 196° |
| 2026-05-06 14:13 | 43.23099 | 5.03934 | 10939 ft | 359 kts | 178° |
| 2026-05-06 14:13 | 43.20680 | 5.04978 | 11516 ft | 373 kts | 151° |
| 2026-05-06 14:13 | 43.18777 | 5.07387 | 12176 ft | 383 kts | 127° |
| 2026-05-06 14:14 | 43.17375 | 5.10520 | 12877 ft | 387 kts | 120° |
| 2026-05-06 14:14 | 43.16155 | 5.13841 | 13565 ft | 391 kts | 117° |
| 2026-05-06 14:14 | 43.15019 | 5.17256 | 14178 ft | 395 kts | 116° |
| 2026-05-06 14:14 | 43.13892 | 5.20710 | 14712 ft | 399 kts | 116° |
| 2026-05-06 14:15 | 43.12742 | 5.24126 | 14893 ft | 400 kts | 119° |
| 2026-05-06 14:15 | 43.11229 | 5.27301 | 14941 ft | 396 kts | 133° |
| 2026-05-06 14:15 | 43.09245 | 5.29889 | 14942 ft | 391 kts | 146° |
| 2026-05-06 14:15 | 43.06926 | 5.31802 | 14948 ft | 387 kts | 159° |
| 2026-05-06 14:16 | 43.04425 | 5.32985 | 14947 ft | 383 kts | 170° |
| 2026-05-06 14:16 | 43.01810 | 5.33465 | 14938 ft | 377 kts | 182° |
| 2026-05-06 14:16 | 42.99190 | 5.33477 | 14941 ft | 375 kts | 185° |
| 2026-05-06 14:16 | 42.96577 | 5.33360 | 14997 ft | 376 kts | 186° |
| 2026-05-06 14:17 | 42.94838 | 5.33235 | 15413 ft | 377 kts | 187° |
| 2026-05-06 14:17 | 42.92202 | 5.33019 | 16024 ft | 381 kts | 187° |
| 2026-05-06 14:17 | 42.88163 | 5.32688 | 16925 ft | 385 kts | 187° |
| 2026-05-06 14:17 | 42.85480 | 5.32490 | 17615 ft | 386 kts | 187° |
| 2026-05-06 14:18 | 42.82825 | 5.32311 | 18250 ft | 388 kts | 187° |
| 2026-05-06 14:18 | 42.80110 | 5.32144 | 18785 ft | 389 kts | 187° |
| 2026-05-06 14:18 | 42.77391 | 5.31988 | 19323 ft | 391 kts | 186° |
| 2026-05-06 14:18 | 42.74650 | 5.32339 | 19853 ft | 402 kts | 173° |
| 2026-05-06 14:19 | 42.72030 | 5.33693 | 20338 ft | 416 kts | 157° |
| 2026-05-06 14:19 | 42.69687 | 5.36106 | 20839 ft | 432 kts | 141° |
| 2026-05-06 14:19 | 42.67885 | 5.39475 | 21305 ft | 449 kts | 123° |
| 2026-05-06 14:19 | 42.66733 | 5.43494 | 21742 ft | 459 kts | 115° |
| 2026-05-06 14:20 | 42.65703 | 5.47626 | 22171 ft | 461 kts | 114° |
| 2026-05-06 14:20 | 42.64681 | 5.51763 | 22574 ft | 464 kts | 115° |
| 2026-05-06 14:20 | 42.63661 | 5.55886 | 22971 ft | 466 kts | 115° |
| 2026-05-06 14:20 | 42.62619 | 5.60068 | 23352 ft | 469 kts | 115° |
| 2026-05-06 14:21 | 42.61558 | 5.64285 | 23693 ft | 471 kts | 115° |
| 2026-05-06 14:21 | 42.60852 | 5.67076 | 23901 ft | 473 kts | 115° |
| 2026-05-06 14:21 | 42.59779 | 5.71305 | 24199 ft | 474 kts | 115° |
| 2026-05-06 14:21 | 42.58699 | 5.75549 | 24531 ft | 476 kts | 116° |
| 2026-05-06 14:22 | 42.57613 | 5.79809 | 24827 ft | 477 kts | 116° |
| 2026-05-06 14:22 | 42.56526 | 5.84072 | 24932 ft | 480 kts | 116° |
| 2026-05-06 14:22 | 42.55418 | 5.88400 | 24950 ft | 487 kts | 116° |
| 2026-05-06 14:22 | 42.54313 | 5.92714 | 24952 ft | 490 kts | 116° |
| 2026-05-06 14:23 | 42.53196 | 5.97090 | 24945 ft | 490 kts | 115° |
| 2026-05-06 14:23 | 42.52082 | 6.01459 | 24943 ft | 491 kts | 115° |
| 2026-05-06 14:23 | 42.50963 | 6.05833 | 24946 ft | 491 kts | 116° |
| 2026-05-06 14:23 | 42.49837 | 6.10216 | 24916 ft | 490 kts | 116° |
| 2026-05-06 14:24 | 42.48724 | 6.14533 | 24945 ft | 489 kts | 116° |
| 2026-05-06 14:24 | 42.47600 | 6.18874 | 24941 ft | 489 kts | 116° |
| 2026-05-06 14:24 | 42.46467 | 6.23235 | 24940 ft | 488 kts | 116° |
| 2026-05-06 14:24 | 42.45349 | 6.27534 | 24935 ft | 488 kts | 116° |
| 2026-05-06 14:25 | 42.44220 | 6.31887 | 24931 ft | 488 kts | 116° |
| 2026-05-06 14:25 | 42.43090 | 6.36236 | 24922 ft | 488 kts | 116° |
| 2026-05-06 14:25 | 42.41976 | 6.40523 | 24925 ft | 488 kts | 116° |
| 2026-05-06 14:25 | 42.40849 | 6.44857 | 24927 ft | 488 kts | 116° |
| 2026-05-06 14:26 | 42.39717 | 6.49193 | 24902 ft | 487 kts | 116° |
| 2026-05-06 14:26 | 42.38578 | 6.53524 | 24917 ft | 487 kts | 116° |
| 2026-05-06 14:26 | 42.37456 | 6.57790 | 24939 ft | 487 kts | 116° |
| 2026-05-06 14:26 | 42.36321 | 6.62106 | 24945 ft | 487 kts | 116° |
| 2026-05-06 14:27 | 42.35186 | 6.66419 | 24938 ft | 486 kts | 116° |
| 2026-05-06 14:27 | 42.34051 | 6.70724 | 24945 ft | 486 kts | 116° |
| 2026-05-06 14:27 | 42.32914 | 6.75034 | 24952 ft | 486 kts | 116° |
| 2026-05-06 14:27 | 42.31770 | 6.79356 | 24955 ft | 486 kts | 116° |
| 2026-05-06 14:28 | 42.30630 | 6.83648 | 24948 ft | 486 kts | 116° |
| 2026-05-06 14:28 | 42.29486 | 6.87944 | 24924 ft | 485 kts | 116° |
| 2026-05-06 14:28 | 42.28356 | 6.92173 | 24928 ft | 485 kts | 116° |
| 2026-05-06 14:28 | 42.27209 | 6.96463 | 24930 ft | 485 kts | 116° |
| 2026-05-06 14:29 | 42.26059 | 7.00762 | 24933 ft | 485 kts | 116° |
| 2026-05-06 14:29 | 42.24913 | 7.05050 | 24937 ft | 485 kts | 116° |
| 2026-05-06 14:29 | 42.23765 | 7.09339 | 24940 ft | 485 kts | 116° |
| 2026-05-06 14:29 | 42.22610 | 7.13635 | 24947 ft | 485 kts | 116° |
| 2026-05-06 14:30 | 42.21471 | 7.17859 | 24944 ft | 485 kts | 116° |
| 2026-05-06 14:30 | 42.20312 | 7.22154 | 24817 ft | 486 kts | 116° |
| 2026-05-06 14:30 | 42.19156 | 7.26441 | 24578 ft | 486 kts | 116° |
| 2026-05-06 14:30 | 42.18000 | 7.30722 | 24344 ft | 486 kts | 116° |
| 2026-05-06 14:31 | 42.16835 | 7.35012 | 24097 ft | 486 kts | 116° |
| 2026-05-06 14:31 | 42.15666 | 7.39297 | 23866 ft | 487 kts | 116° |
| 2026-05-06 14:31 | 42.14514 | 7.43519 | 22997 ft | 485 kts | 116° |
| 2026-05-06 14:31 | 42.13347 | 7.47804 | 21874 ft | 486 kts | 115° |
| 2026-05-06 14:32 | 42.12192 | 7.52059 | 21050 ft | 478 kts | 115° |
| 2026-05-06 14:32 | 42.11071 | 7.56195 | 20188 ft | 460 kts | 115° |
| 2026-05-06 14:32 | 42.10006 | 7.60117 | 19375 ft | 444 kts | 115° |
| 2026-05-06 14:32 | 42.08956 | 7.63959 | 18619 ft | 430 kts | 115° |
| 2026-05-06 14:33 | 42.07918 | 7.67723 | 17827 ft | 429 kts | 115° |
| 2026-05-06 14:33 | 42.06871 | 7.71497 | 17063 ft | 429 kts | 115° |
| 2026-05-06 14:33 | 42.05821 | 7.75280 | 16342 ft | 429 kts | 114° |
| 2026-05-06 14:33 | 42.04779 | 7.79039 | 15639 ft | 428 kts | 114° |
| 2026-05-06 14:34 | 42.03752 | 7.82744 | 14953 ft | 427 kts | 114° |
| 2026-05-06 14:34 | 42.02714 | 7.86481 | 14282 ft | 426 kts | 114° |
| 2026-05-06 14:34 | 42.01677 | 7.90220 | 13607 ft | 424 kts | 114° |
| 2026-05-06 14:34 | 42.00650 | 7.93923 | 12926 ft | 421 kts | 113° |
| 2026-05-06 14:35 | 41.99645 | 7.97550 | 12287 ft | 416 kts | 113° |
| 2026-05-06 14:35 | 41.98687 | 8.01196 | 11655 ft | 413 kts | 109° |
| 2026-05-06 14:35 | 41.98137 | 8.04975 | 11163 ft | 408 kts | 98° |
| 2026-05-06 14:35 | 41.98050 | 8.08720 | 11034 ft | 392 kts | 92° |
| 2026-05-06 14:36 | 41.98043 | 8.12310 | 10906 ft | 376 kts | 92° |
| 2026-05-06 14:36 | 41.98026 | 8.15756 | 10785 ft | 361 kts | 93° |
| 2026-05-06 14:36 | 41.98003 | 8.19059 | 10662 ft | 347 kts | 93° |
| 2026-05-06 14:36 | 41.97980 | 8.22212 | 10544 ft | 335 kts | 93° |
| 2026-05-06 14:37 | 41.97960 | 8.25299 | 10421 ft | 324 kts | 93° |
| 2026-05-06 14:37 | 41.97941 | 8.28289 | 10192 ft | 317 kts | 93° |
| 2026-05-06 14:37 | 41.97923 | 8.31238 | 10068 ft | 313 kts | 93° |
| 2026-05-06 14:37 | 41.97905 | 8.34137 | 9930 ft | 313 kts | 93° |
| 2026-05-06 14:38 | 41.97884 | 8.37082 | 9396 ft | 317 kts | 93° |
| 2026-05-06 14:38 | 41.97860 | 8.40020 | 9091 ft | 312 kts | 93° |
| 2026-05-06 14:38 | 41.97837 | 8.42923 | 8571 ft | 308 kts | 93° |
| 2026-05-06 14:38 | 41.97816 | 8.45783 | 7946 ft | 304 kts | 92° |
| 2026-05-06 14:39 | 41.97662 | 8.48571 | 7413 ft | 295 kts | 104° |
| 2026-05-06 14:39 | 41.97013 | 8.51141 | 6961 ft | 287 kts | 120° |
| 2026-05-06 14:39 | 41.95941 | 8.53278 | 6662 ft | 269 kts | 135° |
| 2026-05-06 14:39 | 41.94668 | 8.54975 | 6439 ft | 250 kts | 139° |
| 2026-05-06 14:40 | 41.93428 | 8.56585 | 5968 ft | 245 kts | 139° |
| 2026-05-06 14:40 | 41.92213 | 8.58169 | 5727 ft | 242 kts | 138° |
| 2026-05-06 14:40 | 41.91186 | 8.59972 | 5596 ft | 246 kts | 115° |
| 2026-05-06 14:40 | 41.90841 | 8.62203 | 5475 ft | 243 kts | 90° |
| 2026-05-06 14:41 | 41.90829 | 8.64433 | 5211 ft | 241 kts | 93° |
| 2026-05-06 14:41 | 41.90768 | 8.66726 | 4694 ft | 250 kts | 88° |
| 2026-05-06 14:41 | 41.91110 | 8.68996 | 4434 ft | 249 kts | 66° |
| 2026-05-06 14:41 | 41.92051 | 8.70929 | 4112 ft | 247 kts | 44° |
| 2026-05-06 14:42 | 41.93338 | 8.72411 | 3826 ft | 238 kts | 37° |
| 2026-05-06 14:42 | 41.94605 | 8.73748 | 3513 ft | 232 kts | 38° |
| 2026-05-06 14:42 | 41.95867 | 8.75097 | 3285 ft | 228 kts | 38° |
| 2026-05-06 14:42 | 41.97073 | 8.76441 | 2934 ft | 221 kts | 40° |
| 2026-05-06 14:43 | 41.98191 | 8.77772 | 2521 ft | 208 kts | 41° |
| 2026-05-06 14:43 | 41.99195 | 8.79069 | 2340 ft | 191 kts | 51° |
| 2026-05-06 14:43 | 41.99673 | 8.80618 | 2147 ft | 175 kts | 91° |
| 2026-05-06 14:43 | 41.99296 | 8.82058 | 1940 ft | 158 kts | 136° |
| 2026-05-06 14:44 | 41.98470 | 8.82871 | 1657 ft | 147 kts | 161° |
| 2026-05-06 14:44 | 41.97474 | 8.83057 | 1273 ft | 144 kts | 185° |
| 2026-05-06 14:44 | 41.96508 | 8.82799 | 954 ft | 139 kts | 201° |
| 2026-05-06 14:45 | 41.94772 | 8.81734 | 501 ft | 137 kts | 205° |
| 2026-05-06 14:45 | 41.93921 | 8.81199 | 269 ft | 134 kts | 204° |
| 2026-05-06 14:45 | 41.93079 | 8.80676 | 63 ft | 132 kts | 206° |
| 2026-05-06 14:45 | 41.92322 | 8.80201 | 23 ft | 97 kts | 205° |
| 2026-05-06 14:46 | 41.91827 | 8.79893 | 25 ft | 69 kts | 205° |
| 2026-05-06 14:46 | 41.91462 | 8.79665 | 22 ft | 45 kts | 205° |
| 2026-05-06 14:46 | 41.91316 | 8.79575 | 23 ft | 15 kts | 205° |
| 2026-05-06 14:46 | 41.91251 | 8.79482 | 23 ft | 13 kts | 256° |
| 2026-05-06 14:47 | 41.91298 | 8.79393 | 21 ft | 12 kts | 334° |
| 2026-05-06 14:47 | 41.91370 | 8.79348 | 21 ft | 11 kts | 336° |
| 2026-05-06 14:47 | 41.91444 | 8.79334 | 21 ft | 12 kts | 6° |
| 2026-05-06 14:47 | 41.91527 | 8.79375 | 23 ft | 12 kts | 24° |
| 2026-05-06 14:48 | 41.91602 | 8.79421 | 22 ft | 11 kts | 25° |
| 2026-05-06 14:48 | 41.91670 | 8.79464 | 21 ft | 10 kts | 25° |
| 2026-05-06 14:48 | 41.91731 | 8.79502 | 22 ft | 9 kts | 24° |
| 2026-05-06 14:48 | 41.91781 | 8.79532 | 21 ft | 0 kts | 25° |
| 2026-05-06 14:50 | 41.91785 | 8.79535 | 21 ft | 3 kts | 25° |
| 2026-05-06 14:50 | 41.91814 | 8.79552 | 22 ft | 5 kts | 25° |
| 2026-05-06 14:51 | 41.91854 | 8.79577 | 21 ft | 8 kts | 25° |
| 2026-05-06 14:51 | 41.91904 | 8.79595 | 21 ft | 7 kts | 347° |
| 2026-05-06 14:51 | 41.91948 | 8.79579 | 22 ft | 6 kts | 345° |
| 2026-05-06 14:51 | 41.91959 | 8.79575 | 21 ft | 0 kts | 345° |